Terminal Aerodrome Forecast
Issued by NWS

Home | Current Version | Previous Version | Text Only | Print | Product List | Glossary On
Versions: 1 2 3 4 5 6 7 8 9 10 11 12 13 14 15 16 17 18 19 20 21 22 23 24 25
000
FTUS44 KMAF 211258 AAA
TAFHOB
TAF AMD
KHOB 211258Z 2113/2212 09007KT 4SM BR OVC004
     FM211600 11011KT P6SM OVC015
     FM211800 12011KT P6SM SCT040 SCT250
     FM212200 12014G22KT P6SM SCT050 BKN250
      TEMPO 2203/2207 VRB25G45KT 1SM +TSRA BKN015 OVC035CB=

USA.gov is the U.S. government's official web portal to all federal, state and local government web resources and services.